sensor_id;sensor_type;location;lat;lon;timestamp;pressure;altitude;pressure_sealevel;temperature;humidity
37170;BME280;23062;13.952;100.608;2023-04-08T00:00:31;1012.14;;;32.07;63.77
37170;BME280;23062;13.952;100.608;2023-04-08T00:04:55;1012.25;;;32.05;63.89
37170;BME280;23062;13.952;100.608;2023-04-08T00:09:20;1012.37;;;32.06;64.05
37170;BME280;23062;13.952;100.608;2023-04-08T00:13:48;1012.36;;;32.05;64.13
37170;BME280;23062;13.952;100.608;2023-04-08T00:18:13;1012.42;;;31.93;64.17
37170;BME280;23062;13.952;100.608;2023-04-08T00:22:38;1012.45;;;31.91;64.15
37170;BME280;23062;13.952;100.608;2023-04-08T00:27:03;1012.55;;;31.98;63.88
37170;BME280;23062;13.952;100.608;2023-04-08T00:31:34;1012.66;;;31.95;63.95
37170;BME280;23062;13.952;100.608;2023-04-08T00:35:58;1012.78;;;31.95;63.83
37170;BME280;23062;13.952;100.608;2023-04-08T00:40:23;1012.84;;;31.93;63.95
37170;BME280;23062;13.952;100.608;2023-04-08T00:44:48;1012.96;;;32.00;63.72
37170;BME280;23062;13.952;100.608;2023-04-08T00:49:13;1013.13;;;32.11;63.44
37170;BME280;23062;13.952;100.608;2023-04-08T00:53:40;1013.18;;;32.17;63.29
37170;BME280;23062;13.952;100.608;2023-04-08T00:58:06;1013.27;;;32.16;63.33
37170;BME280;23062;13.952;100.608;2023-04-08T01:02:39;1013.32;;;32.23;63.11
37170;BME280;23062;13.952;100.608;2023-04-08T01:07:21;1013.45;;;32.26;62.96
37170;BME280;23062;13.952;100.608;2023-04-08T01:11:47;1013.60;;;32.27;62.98
37170;BME280;23062;13.952;100.608;2023-04-08T01:16:14;1013.71;;;32.30;62.89
37170;BME280;23062;13.952;100.608;2023-04-08T01:20:42;1013.77;;;32.31;62.91
37170;BME280;23062;13.952;100.608;2023-04-08T01:25:20;1013.85;;;32.37;62.90
37170;BME280;23062;13.952;100.608;2023-04-08T01:29:42;1013.89;;;32.36;62.92
37170;BME280;23062;13.952;100.608;2023-04-08T01:34:08;1013.90;;;32.38;62.90
37170;BME280;23062;13.952;100.608;2023-04-08T01:38:35;1013.95;;;32.41;62.85
37170;BME280;23062;13.952;100.608;2023-04-08T01:43:02;1013.92;;;32.41;62.92
37170;BME280;23062;13.952;100.608;2023-04-08T01:47:30;1013.94;;;32.44;62.88
37170;BME280;23062;13.952;100.608;2023-04-08T01:51:55;1013.92;;;32.45;62.88
37170;BME280;23062;13.952;100.608;2023-04-08T01:56:22;1013.94;;;32.49;62.91
37170;BME280;23062;13.952;100.608;2023-04-08T02:00:52;1013.97;;;32.51;63.00
37170;BME280;23062;13.952;100.608;2023-04-08T02:05:18;1014.03;;;32.57;62.76
37170;BME280;23062;13.952;100.608;2023-04-08T02:09:43;1014.05;;;32.55;62.89
37170;BME280;23062;13.952;100.608;2023-04-08T02:14:11;1014.11;;;32.52;62.88
37170;BME280;23062;13.952;100.608;2023-04-08T02:18:37;1014.14;;;32.56;62.72
37170;BME280;23062;13.952;100.608;2023-04-08T02:23:19;1014.19;;;32.61;62.42
37170;BME280;23062;13.952;100.608;2023-04-08T02:27:45;1014.21;;;32.64;62.78
37170;BME280;23062;13.952;100.608;2023-04-08T02:32:12;1014.17;;;32.61;62.49
37170;BME280;23062;13.952;100.608;2023-04-08T02:36:38;1014.24;;;32.68;62.23
37170;BME280;23062;13.952;100.608;2023-04-08T02:41:06;1014.19;;;32.73;62.13
37170;BME280;23062;13.952;100.608;2023-04-08T02:45:37;1014.16;;;32.78;61.88
37170;BME280;23062;13.952;100.608;2023-04-08T02:50:00;1014.13;;;32.78;61.51
37170;BME280;23062;13.952;100.608;2023-04-08T02:54:28;1014.07;;;32.81;61.38
37170;BME280;23062;13.952;100.608;2023-04-08T02:58:54;1013.93;;;32.79;61.69
37170;BME280;23062;13.952;100.608;2023-04-08T03:03:21;1013.91;;;32.82;61.39
37170;BME280;23062;13.952;100.608;2023-04-08T03:07:51;1013.94;;;32.88;61.50
37170;BME280;23062;13.952;100.608;2023-04-08T03:12:16;1013.87;;;32.87;61.21
37170;BME280;23062;13.952;100.608;2023-04-08T03:16:41;1013.88;;;32.93;60.79
37170;BME280;23062;13.952;100.608;2023-04-08T03:21:06;1013.86;;;32.88;60.83
37170;BME280;23062;13.952;100.608;2023-04-08T03:25:31;1013.83;;;32.90;60.84
37170;BME280;23062;13.952;100.608;2023-04-08T03:29:59;1013.71;;;32.90;60.68
37170;BME280;23062;13.952;100.608;2023-04-08T03:34:23;1013.69;;;32.95;60.14
37170;BME280;23062;13.952;100.608;2023-04-08T03:38:48;1013.71;;;32.96;60.61
37170;BME280;23062;13.952;100.608;2023-04-08T03:43:13;1013.63;;;32.96;60.12
37170;BME280;23062;13.952;100.608;2023-04-08T03:47:38;1013.61;;;32.97;59.44
37170;BME280;23062;13.952;100.608;2023-04-08T03:52:03;1013.60;;;33.02;59.57
37170;BME280;23062;13.952;100.608;2023-04-08T03:56:27;1013.54;;;33.05;59.74
37170;BME280;23062;13.952;100.608;2023-04-08T04:00:52;1013.48;;;33.09;59.36
37170;BME280;23062;13.952;100.608;2023-04-08T04:05:17;1013.39;;;33.12;58.80
37170;BME280;23062;13.952;100.608;2023-04-08T04:09:42;1013.37;;;33.11;58.93
37170;BME280;23062;13.952;100.608;2023-04-08T04:14:09;1013.30;;;33.17;58.78
37170;BME280;23062;13.952;100.608;2023-04-08T04:18:36;1013.30;;;33.15;58.17
37170;BME280;23062;13.952;100.608;2023-04-08T04:23:01;1013.26;;;33.20;57.63
37170;BME280;23062;13.952;100.608;2023-04-08T04:27:26;1013.09;;;33.18;57.32
37170;BME280;23062;13.952;100.608;2023-04-08T04:31:51;1013.09;;;33.23;56.69
37170;BME280;23062;13.952;100.608;2023-04-08T04:36:16;1013.02;;;33.22;56.76
37170;BME280;23062;13.952;100.608;2023-04-08T04:40:41;1012.97;;;33.25;56.50
37170;BME280;23062;13.952;100.608;2023-04-08T04:45:07;1012.88;;;33.30;56.19
37170;BME280;23062;13.952;100.608;2023-04-08T04:49:33;1012.85;;;33.33;55.75
37170;BME280;23062;13.952;100.608;2023-04-08T04:53:59;1012.74;;;33.32;55.40
37170;BME280;23062;13.952;100.608;2023-04-08T04:58:30;1012.63;;;33.37;54.15
37170;BME280;23062;13.952;100.608;2023-04-08T05:02:57;1012.56;;;33.37;54.47
37170;BME280;23062;13.952;100.608;2023-04-08T05:07:22;1012.54;;;33.46;53.84
37170;BME280;23062;13.952;100.608;2023-04-08T05:11:51;1012.47;;;33.47;54.20
37170;BME280;23062;13.952;100.608;2023-04-08T05:16:15;1012.38;;;33.47;54.07
37170;BME280;23062;13.952;100.608;2023-04-08T05:20:40;1012.34;;;33.50;54.01
37170;BME280;23062;13.952;100.608;2023-04-08T05:25:05;1012.26;;;33.64;52.00
37170;BME280;23062;13.952;100.608;2023-04-08T05:29:30;1012.19;;;33.63;53.00
37170;BME280;23062;13.952;100.608;2023-04-08T05:33:55;1012.10;;;33.64;52.21
37170;BME280;23062;13.952;100.608;2023-04-08T05:38:23;1012.11;;;33.60;52.35
37170;BME280;23062;13.952;100.608;2023-04-08T05:42:48;1011.98;;;33.61;52.38
37170;BME280;23062;13.952;100.608;2023-04-08T05:47:16;1011.88;;;33.60;52.86
37170;BME280;23062;13.952;100.608;2023-04-08T05:51:41;1011.79;;;33.59;52.73
37170;BME280;23062;13.952;100.608;2023-04-08T05:56:07;1011.73;;;33.74;52.30
37170;BME280;23062;13.952;100.608;2023-04-08T06:00:35;1011.62;;;33.73;52.91
37170;BME280;23062;13.952;100.608;2023-04-08T06:05:00;1011.57;;;33.75;51.97
37170;BME280;23062;13.952;100.608;2023-04-08T06:09:26;1011.43;;;33.72;52.22
37170;BME280;23062;13.952;100.608;2023-04-08T06:13:50;1011.26;;;33.76;51.64
37170;BME280;23062;13.952;100.608;2023-04-08T06:18:18;1011.20;;;33.86;51.13
37170;BME280;23062;13.952;100.608;2023-04-08T06:22:45;1011.10;;;33.93;50.08
37170;BME280;23062;13.952;100.608;2023-04-08T06:27:10;1011.00;;;33.88;50.89
37170;BME280;23062;13.952;100.608;2023-04-08T06:31:37;1010.93;;;33.87;51.32
37170;BME280;23062;13.952;100.608;2023-04-08T06:36:03;1010.87;;;33.94;50.43
37170;BME280;23062;13.952;100.608;2023-04-08T06:40:29;1010.82;;;34.00;50.40
37170;BME280;23062;13.952;100.608;2023-04-08T06:44:53;1010.73;;;33.95;50.14
37170;BME280;23062;13.952;100.608;2023-04-08T06:49:19;1010.68;;;33.99;49.76
37170;BME280;23062;13.952;100.608;2023-04-08T06:53:47;1010.61;;;33.95;49.55
37170;BME280;23062;13.952;100.608;2023-04-08T06:58:12;1010.56;;;33.91;50.26
37170;BME280;23062;13.952;100.608;2023-04-08T07:02:36;1010.54;;;33.91;50.00
37170;BME280;23062;13.952;100.608;2023-04-08T07:07:01;1010.46;;;33.94;49.09
37170;BME280;23062;13.952;100.608;2023-04-08T07:11:32;1010.37;;;33.92;49.43
37170;BME280;23062;13.952;100.608;2023-04-08T07:15:57;1010.31;;;33.87;49.52
37170;BME280;23062;13.952;100.608;2023-04-08T07:20:23;1010.25;;;33.91;49.08
37170;BME280;23062;13.952;100.608;2023-04-08T07:24:55;1010.23;;;33.91;48.63
37170;BME280;23062;13.952;100.608;2023-04-08T07:29:21;1010.15;;;33.91;48.70
37170;BME280;23062;13.952;100.608;2023-04-08T07:33:46;1010.07;;;33.95;48.27
37170;BME280;23062;13.952;100.608;2023-04-08T07:38:13;1009.94;;;33.95;48.46
37170;BME280;23062;13.952;100.608;2023-04-08T07:42:39;1009.80;;;33.95;48.23
37170;BME280;23062;13.952;100.608;2023-04-08T07:47:04;1009.64;;;33.95;48.54
37170;BME280;23062;13.952;100.608;2023-04-08T07:51:35;1009.54;;;33.96;48.67
37170;BME280;23062;13.952;100.608;2023-04-08T07:56:00;1009.46;;;33.96;48.44
37170;BME280;23062;13.952;100.608;2023-04-08T08:00:28;1009.33;;;34.02;48.36
37170;BME280;23062;13.952;100.608;2023-04-08T08:04:53;1009.29;;;34.02;48.80
37170;BME280;23062;13.952;100.608;2023-04-08T08:09:18;1009.21;;;34.02;48.38
37170;BME280;23062;13.952;100.608;2023-04-08T08:13:43;1009.20;;;34.03;48.87
37170;BME280;23062;13.952;100.608;2023-04-08T08:22:46;1009.05;;;34.02;48.25
37170;BME280;23062;13.952;100.608;2023-04-08T08:27:13;1008.99;;;34.00;48.46
37170;BME280;23062;13.952;100.608;2023-04-08T08:31:37;1008.94;;;34.05;48.26
37170;BME280;23062;13.952;100.608;2023-04-08T08:36:03;1008.87;;;34.05;48.50
37170;BME280;23062;13.952;100.608;2023-04-08T08:40:29;1008.82;;;34.06;48.40
37170;BME280;23062;13.952;100.608;2023-04-08T08:44:54;1008.86;;;34.08;48.14
37170;BME280;23062;13.952;100.608;2023-04-08T08:49:19;1008.80;;;34.11;47.86
37170;BME280;23062;13.952;100.608;2023-04-08T08:53:44;1008.60;;;34.03;48.04
37170;BME280;23062;13.952;100.608;2023-04-08T08:58:10;1008.51;;;34.10;47.49
37170;BME280;23062;13.952;100.608;2023-04-08T09:02:42;1008.54;;;34.06;47.11
37170;BME280;23062;13.952;100.608;2023-04-08T09:07:10;1008.46;;;34.04;47.29
37170;BME280;23062;13.952;100.608;2023-04-08T09:11:41;1008.53;;;34.01;47.35
37170;BME280;23062;13.952;100.608;2023-04-08T09:16:08;1008.47;;;34.01;47.21
37170;BME280;23062;13.952;100.608;2023-04-08T09:20:33;1008.63;;;33.98;47.46
37170;BME280;23062;13.952;100.608;2023-04-08T09:24:58;1008.75;;;33.97;47.18
37170;BME280;23062;13.952;100.608;2023-04-08T09:29:25;1008.72;;;33.94;47.24
37170;BME280;23062;13.952;100.608;2023-04-08T09:33:51;1008.80;;;33.91;47.29
37170;BME280;23062;13.952;100.608;2023-04-08T09:38:17;1008.84;;;33.94;47.33
37170;BME280;23062;13.952;100.608;2023-04-08T09:42:46;1009.10;;;33.88;47.46
37170;BME280;23062;13.952;100.608;2023-04-08T09:47:21;1009.28;;;33.91;46.78
37170;BME280;23062;13.952;100.608;2023-04-08T09:52:10;1009.32;;;33.84;47.06
37170;BME280;23062;13.952;100.608;2023-04-08T09:56:36;1009.28;;;33.81;47.18
37170;BME280;23062;13.952;100.608;2023-04-08T10:01:07;1009.30;;;33.81;47.31
37170;BME280;23062;13.952;100.608;2023-04-08T10:05:40;1009.28;;;33.75;47.07
37170;BME280;23062;13.952;100.608;2023-04-08T10:10:06;1009.25;;;33.73;47.97
37170;BME280;23062;13.952;100.608;2023-04-08T10:14:32;1009.22;;;33.74;48.84
37170;BME280;23062;13.952;100.608;2023-04-08T10:18:57;1009.38;;;33.68;49.14
37170;BME280;23062;13.952;100.608;2023-04-08T10:23:51;1009.46;;;33.63;48.84
37170;BME280;23062;13.952;100.608;2023-04-08T10:27:48;1009.49;;;33.65;48.98
37170;BME280;23062;13.952;100.608;2023-04-08T10:36:53;1009.64;;;33.59;50.39
37170;BME280;23062;13.952;100.608;2023-04-08T10:41:22;1009.63;;;33.58;51.42
37170;BME280;23062;13.952;100.608;2023-04-08T10:45:45;1009.61;;;33.61;51.81
37170;BME280;23062;13.952;100.608;2023-04-08T10:50:15;1009.68;;;33.60;52.25
37170;BME280;23062;13.952;100.608;2023-04-08T10:54:45;1009.76;;;33.57;52.96
37170;BME280;23062;13.952;100.608;2023-04-08T10:59:07;1009.73;;;33.57;53.15
37170;BME280;23062;13.952;100.608;2023-04-08T11:03:33;1009.63;;;33.51;53.97
37170;BME280;23062;13.952;100.608;2023-04-08T11:07:58;1009.62;;;33.47;55.31
37170;BME280;23062;13.952;100.608;2023-04-08T11:12:25;1009.69;;;33.49;55.49
37170;BME280;23062;13.952;100.608;2023-04-08T11:16:51;1009.75;;;33.52;55.70
37170;BME280;23062;13.952;100.608;2023-04-08T11:21:16;1009.73;;;33.54;56.28
37170;BME280;23062;13.952;100.608;2023-04-08T11:25:42;1009.76;;;33.50;55.90
37170;BME280;23062;13.952;100.608;2023-04-08T11:30:09;1009.58;;;33.49;55.70
37170;BME280;23062;13.952;100.608;2023-04-08T11:34:37;1009.53;;;33.47;55.69
37170;BME280;23062;13.952;100.608;2023-04-08T11:39:10;1009.51;;;33.41;55.73
37170;BME280;23062;13.952;100.608;2023-04-08T11:43:35;1009.53;;;33.43;55.59
37170;BME280;23062;13.952;100.608;2023-04-08T11:48:00;1009.52;;;33.44;55.35
37170;BME280;23062;13.952;100.608;2023-04-08T11:52:48;1009.51;;;33.45;55.11
37170;BME280;23062;13.952;100.608;2023-04-08T11:57:16;1009.64;;;33.46;55.12
37170;BME280;23062;13.952;100.608;2023-04-08T12:01:47;1009.85;;;33.43;53.80
37170;BME280;23062;13.952;100.608;2023-04-08T12:06:12;1010.13;;;33.41;54.20
37170;BME280;23062;13.952;100.608;2023-04-08T12:10:37;1010.44;;;33.40;53.92
37170;BME280;23062;13.952;100.608;2023-04-08T12:15:10;1010.71;;;33.39;53.72
37170;BME280;23062;13.952;100.608;2023-04-08T12:19:35;1010.88;;;33.36;53.70
37170;BME280;23062;13.952;100.608;2023-04-08T12:24:02;1010.97;;;33.40;53.79
37170;BME280;23062;13.952;100.608;2023-04-08T12:28:28;1011.09;;;33.34;54.03
37170;BME280;23062;13.952;100.608;2023-04-08T12:32:52;1011.27;;;33.34;54.04
37170;BME280;23062;13.952;100.608;2023-04-08T12:37:20;1011.32;;;33.38;54.03
37170;BME280;23062;13.952;100.608;2023-04-08T12:41:45;1011.30;;;33.33;54.22
37170;BME280;23062;13.952;100.608;2023-04-08T12:46:12;1011.39;;;33.32;54.36
37170;BME280;23062;13.952;100.608;2023-04-08T12:50:37;1011.54;;;33.29;54.52
37170;BME280;23062;13.952;100.608;2023-04-08T12:55:01;1011.61;;;33.30;54.70
37170;BME280;23062;13.952;100.608;2023-04-08T12:59:27;1011.70;;;33.28;55.19
37170;BME280;23062;13.952;100.608;2023-04-08T13:03:53;1011.78;;;33.30;55.50
37170;BME280;23062;13.952;100.608;2023-04-08T13:08:19;1011.88;;;33.26;56.15
37170;BME280;23062;13.952;100.608;2023-04-08T13:12:44;1012.00;;;33.28;56.21
37170;BME280;23062;13.952;100.608;2023-04-08T13:17:09;1012.07;;;33.25;56.46
37170;BME280;23062;13.952;100.608;2023-04-08T13:21:34;1012.17;;;33.24;56.45
37170;BME280;23062;13.952;100.608;2023-04-08T13:25:59;1012.27;;;33.23;56.39
37170;BME280;23062;13.952;100.608;2023-04-08T13:30:28;1012.38;;;33.26;56.37
37170;BME280;23062;13.952;100.608;2023-04-08T13:34:52;1012.43;;;33.27;56.45
37170;BME280;23062;13.952;100.608;2023-04-08T13:39:20;1012.45;;;33.27;56.84
37170;BME280;23062;13.952;100.608;2023-04-08T13:43:50;1012.34;;;33.26;57.24
37170;BME280;23062;13.952;100.608;2023-04-08T13:48:18;1012.43;;;33.36;57.11
37170;BME280;23062;13.952;100.608;2023-04-08T13:52:45;1012.41;;;33.59;56.01
37170;BME280;23062;13.952;100.608;2023-04-08T13:57:13;1012.50;;;33.66;55.75
37170;BME280;23062;13.952;100.608;2023-04-08T14:01:38;1012.57;;;33.70;55.73
37170;BME280;23062;13.952;100.608;2023-04-08T14:06:04;1012.69;;;33.72;55.80
37170;BME280;23062;13.952;100.608;2023-04-08T14:10:29;1012.85;;;33.74;55.80
37170;BME280;23062;13.952;100.608;2023-04-08T14:14:54;1012.78;;;33.73;55.82
37170;BME280;23062;13.952;100.608;2023-04-08T14:19:22;1012.86;;;33.74;55.91
37170;BME280;23062;13.952;100.608;2023-04-08T14:23:47;1012.92;;;33.73;56.03
37170;BME280;23062;13.952;100.608;2023-04-08T14:28:17;1013.00;;;33.74;56.05
37170;BME280;23062;13.952;100.608;2023-04-08T14:32:42;1013.00;;;33.72;56.07
37170;BME280;23062;13.952;100.608;2023-04-08T14:37:07;1013.02;;;33.73;56.11
37170;BME280;23062;13.952;100.608;2023-04-08T14:41:32;1013.06;;;33.73;56.14
37170;BME280;23062;13.952;100.608;2023-04-08T14:45:56;1013.20;;;33.73;56.18
37170;BME280;23062;13.952;100.608;2023-04-08T14:50:24;1013.38;;;33.72;56.25
37170;BME280;23062;13.952;100.608;2023-04-08T14:54:49;1013.54;;;33.71;56.35
37170;BME280;23062;13.952;100.608;2023-04-08T14:59:14;1013.70;;;33.71;56.39
37170;BME280;23062;13.952;100.608;2023-04-08T15:03:41;1013.72;;;33.73;56.41
37170;BME280;23062;13.952;100.608;2023-04-08T15:08:06;1013.71;;;33.72;56.44
37170;BME280;23062;13.952;100.608;2023-04-08T15:12:31;1013.69;;;33.69;56.45
37170;BME280;23062;13.952;100.608;2023-04-08T15:16:58;1013.76;;;33.71;56.53
37170;BME280;23062;13.952;100.608;2023-04-08T15:21:22;1013.90;;;33.69;56.51
37170;BME280;23062;13.952;100.608;2023-04-08T15:25:47;1013.90;;;33.69;56.56
37170;BME280;23062;13.952;100.608;2023-04-08T15:30:13;1014.00;;;33.68;56.61
37170;BME280;23062;13.952;100.608;2023-04-08T15:34:39;1013.95;;;33.68;56.64
37170;BME280;23062;13.952;100.608;2023-04-08T15:39:05;1013.88;;;33.68;56.58
37170;BME280;23062;13.952;100.608;2023-04-08T15:43:30;1013.89;;;33.68;56.63
37170;BME280;23062;13.952;100.608;2023-04-08T15:47:55;1013.83;;;33.66;56.73
37170;BME280;23062;13.952;100.608;2023-04-08T15:52:21;1013.77;;;33.65;56.72
37170;BME280;23062;13.952;100.608;2023-04-08T15:56:46;1013.73;;;33.65;56.77
37170;BME280;23062;13.952;100.608;2023-04-08T16:01:11;1013.62;;;33.65;56.45
37170;BME280;23062;13.952;100.608;2023-04-08T16:05:37;1013.56;;;33.62;56.40
37170;BME280;23062;13.952;100.608;2023-04-08T16:10:07;1013.54;;;33.63;56.26
37170;BME280;23062;13.952;100.608;2023-04-08T16:14:32;1013.49;;;33.62;55.94
37170;BME280;23062;13.952;100.608;2023-04-08T16:19:00;1013.38;;;33.62;55.79
37170;BME280;23062;13.952;100.608;2023-04-08T16:23:26;1013.30;;;33.61;55.35
37170;BME280;23062;13.952;100.608;2023-04-08T16:27:51;1013.18;;;33.59;55.49
37170;BME280;23062;13.952;100.608;2023-04-08T16:32:17;1013.14;;;33.58;55.41
37170;BME280;23062;13.952;100.608;2023-04-08T16:36:42;1013.17;;;33.58;55.32
37170;BME280;23062;13.952;100.608;2023-04-08T16:41:07;1013.15;;;33.58;55.14
37170;BME280;23062;13.952;100.608;2023-04-08T16:45:32;1013.07;;;33.56;54.67
37170;BME280;23062;13.952;100.608;2023-04-08T16:49:57;1013.04;;;33.56;55.00
37170;BME280;23062;13.952;100.608;2023-04-08T16:54:25;1012.93;;;33.55;54.83
37170;BME280;23062;13.952;100.608;2023-04-08T16:58:51;1012.90;;;33.54;54.87
37170;BME280;23062;13.952;100.608;2023-04-08T17:03:16;1012.81;;;33.53;54.92
37170;BME280;23062;13.952;100.608;2023-04-08T17:07:40;1012.71;;;33.52;54.76
37170;BME280;23062;13.952;100.608;2023-04-08T17:12:09;1012.59;;;33.52;54.89
37170;BME280;23062;13.952;100.608;2023-04-08T17:16:35;1012.60;;;33.51;54.77
37170;BME280;23062;13.952;100.608;2023-04-08T17:21:07;1012.54;;;33.49;54.83
37170;BME280;23062;13.952;100.608;2023-04-08T17:25:33;1012.55;;;33.49;54.67
37170;BME280;23062;13.952;100.608;2023-04-08T17:30:01;1012.51;;;33.48;54.67
37170;BME280;23062;13.952;100.608;2023-04-08T17:34:29;1012.52;;;33.48;54.72
37170;BME280;23062;13.952;100.608;2023-04-08T17:38:55;1012.56;;;33.46;54.55
37170;BME280;23062;13.952;100.608;2023-04-08T17:43:21;1012.57;;;33.46;54.77
37170;BME280;23062;13.952;100.608;2023-04-08T17:47:45;1012.45;;;33.46;54.72
37170;BME280;23062;13.952;100.608;2023-04-08T17:52:14;1012.47;;;33.45;54.70
37170;BME280;23062;13.952;100.608;2023-04-08T17:56:47;1012.33;;;33.44;54.79
37170;BME280;23062;13.952;100.608;2023-04-08T18:01:12;1012.18;;;33.42;54.90
37170;BME280;23062;13.952;100.608;2023-04-08T18:05:37;1012.16;;;33.41;54.85
37170;BME280;23062;13.952;100.608;2023-04-08T18:10:05;1012.19;;;33.40;54.90
37170;BME280;23062;13.952;100.608;2023-04-08T18:14:30;1012.11;;;33.40;54.94
37170;BME280;23062;13.952;100.608;2023-04-08T18:18:55;1012.10;;;33.40;54.83
37170;BME280;23062;13.952;100.608;2023-04-08T18:23:20;1012.06;;;33.36;54.95
37170;BME280;23062;13.952;100.608;2023-04-08T18:27:45;1011.98;;;33.38;54.85
37170;BME280;23062;13.952;100.608;2023-04-08T18:32:09;1011.84;;;33.37;54.78
37170;BME280;23062;13.952;100.608;2023-04-08T18:36:34;1011.86;;;33.35;54.84
37170;BME280;23062;13.952;100.608;2023-04-08T18:40:59;1011.79;;;33.35;54.74
37170;BME280;23062;13.952;100.608;2023-04-08T18:45:25;1011.74;;;33.33;54.70
37170;BME280;23062;13.952;100.608;2023-04-08T18:49:50;1011.68;;;33.33;54.69
37170;BME280;23062;13.952;100.608;2023-04-08T18:54:18;1011.60;;;33.30;54.75
37170;BME280;23062;13.952;100.608;2023-04-08T18:58:48;1011.52;;;33.31;54.74
37170;BME280;23062;13.952;100.608;2023-04-08T19:03:15;1011.54;;;33.31;54.78
37170;BME280;23062;13.952;100.608;2023-04-08T19:07:43;1011.53;;;33.29;54.93
37170;BME280;23062;13.952;100.608;2023-04-08T19:12:12;1011.48;;;33.29;54.96
37170;BME280;23062;13.952;100.608;2023-04-08T19:16:36;1011.42;;;33.27;55.04
37170;BME280;23062;13.952;100.608;2023-04-08T19:21:01;1011.48;;;33.25;55.13
37170;BME280;23062;13.952;100.608;2023-04-08T19:25:30;1011.47;;;33.26;55.12
37170;BME280;23062;13.952;100.608;2023-04-08T19:29:55;1011.51;;;33.24;55.23
37170;BME280;23062;13.952;100.608;2023-04-08T19:34:24;1011.40;;;33.25;55.18
37170;BME280;23062;13.952;100.608;2023-04-08T19:38:50;1011.39;;;33.24;55.22
37170;BME280;23062;13.952;100.608;2023-04-08T19:43:22;1011.39;;;33.23;55.29
37170;BME280;23062;13.952;100.608;2023-04-08T19:47:50;1011.36;;;33.24;55.21
37170;BME280;23062;13.952;100.608;2023-04-08T19:52:15;1011.41;;;33.25;55.18
37170;BME280;23062;13.952;100.608;2023-04-08T19:56:42;1011.44;;;33.24;55.23
37170;BME280;23062;13.952;100.608;2023-04-08T20:01:11;1011.45;;;33.23;55.29
37170;BME280;23062;13.952;100.608;2023-04-08T20:05:36;1011.43;;;33.23;55.30
37170;BME280;23062;13.952;100.608;2023-04-08T20:10:01;1011.38;;;33.21;55.32
37170;BME280;23062;13.952;100.608;2023-04-08T20:14:27;1011.30;;;33.21;55.33
37170;BME280;23062;13.952;100.608;2023-04-08T20:18:59;1011.32;;;33.19;55.35
37170;BME280;23062;13.952;100.608;2023-04-08T20:23:24;1011.35;;;33.18;55.36
37170;BME280;23062;13.952;100.608;2023-04-08T20:27:49;1011.35;;;33.19;55.38
37170;BME280;23062;13.952;100.608;2023-04-08T20:32:15;1011.35;;;33.17;55.42
37170;BME280;23062;13.952;100.608;2023-04-08T20:36:39;1011.43;;;33.17;55.40
37170;BME280;23062;13.952;100.608;2023-04-08T20:41:04;1011.45;;;33.16;55.42
37170;BME280;23062;13.952;100.608;2023-04-08T20:45:31;1011.51;;;33.15;55.46
37170;BME280;23062;13.952;100.608;2023-04-08T20:49:56;1011.56;;;33.14;55.46
37170;BME280;23062;13.952;100.608;2023-04-08T20:54:20;1011.61;;;33.13;55.45
37170;BME280;23062;13.952;100.608;2023-04-08T20:58:46;1011.61;;;33.12;55.48
37170;BME280;23062;13.952;100.608;2023-04-08T21:03:11;1011.59;;;32.95;56.11
37170;BME280;23062;13.952;100.608;2023-04-08T21:07:35;1011.62;;;32.74;56.63
37170;BME280;23062;13.952;100.608;2023-04-08T21:12:01;1011.65;;;32.69;56.74
37170;BME280;23062;13.952;100.608;2023-04-08T21:16:27;1011.66;;;32.61;56.81
37170;BME280;23062;13.952;100.608;2023-04-08T21:20:53;1011.69;;;32.61;56.80
37170;BME280;23062;13.952;100.608;2023-04-08T21:25:23;1011.68;;;32.57;56.85
37170;BME280;23062;13.952;100.608;2023-04-08T21:29:55;1011.71;;;32.56;56.90
37170;BME280;23062;13.952;100.608;2023-04-08T21:34:21;1011.72;;;32.53;56.97
37170;BME280;23062;13.952;100.608;2023-04-08T21:38:50;1011.77;;;32.53;57.00
37170;BME280;23062;13.952;100.608;2023-04-08T21:43:15;1011.76;;;32.48;57.11
37170;BME280;23062;13.952;100.608;2023-04-08T21:47:41;1011.81;;;32.48;57.22
37170;BME280;23062;13.952;100.608;2023-04-08T21:52:08;1011.90;;;32.47;57.26
37170;BME280;23062;13.952;100.608;2023-04-08T21:56:33;1011.99;;;32.40;57.64
37170;BME280;23062;13.952;100.608;2023-04-08T22:00:58;1011.96;;;32.33;57.88
37170;BME280;23062;13.952;100.608;2023-04-08T22:05:23;1011.97;;;32.34;58.13
37170;BME280;23062;13.952;100.608;2023-04-08T22:09:50;1011.97;;;32.31;58.52
37170;BME280;23062;13.952;100.608;2023-04-08T22:14:16;1012.02;;;32.31;58.87
37170;BME280;23062;13.952;100.608;2023-04-08T22:18:41;1012.03;;;32.27;59.32
37170;BME280;23062;13.952;100.608;2023-04-08T22:23:06;1012.01;;;32.23;59.51
37170;BME280;23062;13.952;100.608;2023-04-08T22:27:34;1012.08;;;32.22;59.47
37170;BME280;23062;13.952;100.608;2023-04-08T22:31:58;1012.07;;;32.19;59.82
37170;BME280;23062;13.952;100.608;2023-04-08T22:36:23;1012.11;;;32.19;60.08
37170;BME280;23062;13.952;100.608;2023-04-08T22:40:54;1012.11;;;32.16;60.12
37170;BME280;23062;13.952;100.608;2023-04-08T22:45:19;1012.17;;;32.17;60.16
37170;BME280;23062;13.952;100.608;2023-04-08T22:49:44;1012.29;;;32.15;60.08
37170;BME280;23062;13.952;100.608;2023-04-08T22:54:09;1012.30;;;32.12;60.16
37170;BME280;23062;13.952;100.608;2023-04-08T22:58:34;1012.37;;;32.12;60.16
37170;BME280;23062;13.952;100.608;2023-04-08T23:02:59;1012.44;;;32.06;60.30
37170;BME280;23062;13.952;100.608;2023-04-08T23:07:25;1012.53;;;31.99;60.40
37170;BME280;23062;13.952;100.608;2023-04-08T23:11:50;1012.58;;;31.97;60.54
37170;BME280;23062;13.952;100.608;2023-04-08T23:16:15;1012.61;;;31.97;60.49
37170;BME280;23062;13.952;100.608;2023-04-08T23:20:39;1012.63;;;31.96;60.71